createdAt,value
2019-03-13T00:01:03.722Z,5.21
2019-03-13T00:03:32.152Z,5.22
2019-03-13T00:06:00.605Z,5.19
2019-03-13T00:08:29.076Z,5.18
2019-03-13T00:10:57.637Z,5.16
2019-03-13T00:13:26.123Z,5.18
2019-03-13T00:15:54.672Z,5.19
2019-03-13T00:18:23.097Z,5.17
2019-03-13T00:20:51.609Z,5.17
2019-03-13T00:23:19.997Z,5.16
2019-03-13T00:25:48.427Z,5.13
2019-03-13T00:28:16.958Z,5.13
2019-03-13T00:30:45.357Z,5.13
2019-03-13T00:33:13.847Z,5.14
2019-03-13T00:35:42.244Z,5.15
2019-03-13T00:38:10.675Z,5.13
2019-03-13T00:40:39.074Z,5.16
2019-03-13T00:43:07.468Z,5.14
2019-03-13T00:45:35.875Z,5.12
2019-03-13T00:48:04.431Z,5.11
2019-03-13T00:50:33.380Z,5.13
2019-03-13T00:53:01.836Z,5.13
2019-03-13T00:55:30.251Z,5.14
2019-03-13T00:57:58.721Z,5.14
2019-03-13T01:00:28.824Z,5.13
2019-03-13T01:02:57.238Z,5.12
2019-03-13T01:05:42.085Z,5.12
2019-03-13T01:08:10.485Z,5.12
2019-03-13T01:10:38.910Z,5.13
2019-03-13T01:13:07.441Z,5.13
2019-03-13T01:15:35.826Z,5.16
2019-03-13T01:18:04.356Z,5.18
2019-03-13T01:20:32.770Z,5.17
2019-03-13T01:23:01.225Z,5.18
2019-03-13T01:25:29.647Z,5.18
2019-03-13T01:27:58.051Z,5.20
2019-03-13T01:30:28.143Z,5.19
2019-03-13T01:32:58.218Z,5.20
2019-03-13T01:35:28.315Z,5.21
2019-03-13T01:37:56.723Z,5.21
2019-03-13T01:40:25.174Z,5.22
2019-03-13T01:42:53.611Z,5.23
2019-03-13T01:45:22.082Z,5.25
2019-03-13T01:47:50.482Z,5.26
2019-03-13T01:50:18.958Z,5.27
2019-03-13T01:52:47.411Z,5.28
2019-03-13T01:55:15.820Z,5.32
2019-03-13T01:57:44.226Z,5.33
2019-03-13T02:00:14.552Z,5.35
2019-03-13T02:02:42.950Z,5.34
2019-03-13T02:05:11.612Z,5.33
2019-03-13T02:07:40.011Z,5.37
2019-03-13T02:10:10.913Z,5.37
2019-03-13T02:12:39.279Z,5.34
2019-03-13T02:15:12.630Z,5.30
2019-03-13T02:17:41.055Z,5.28
2019-03-13T02:20:10.888Z,5.28
2019-03-13T02:22:39.677Z,5.29
2019-03-13T02:25:12.999Z,5.30
2019-03-13T02:27:41.418Z,5.27
2019-03-13T02:30:18.355Z,5.29
2019-03-13T02:32:47.743Z,5.31
2019-03-13T02:35:16.248Z,5.29
2019-03-13T02:37:44.791Z,5.27
2019-03-13T02:40:16.766Z,5.31
2019-03-13T02:42:45.245Z,5.36
2019-03-13T02:45:14.782Z,5.42
2019-03-13T02:47:43.274Z,5.43
2019-03-13T02:50:13.924Z,5.45
2019-03-13T02:52:42.367Z,5.45
2019-03-13T02:55:11.425Z,5.44
2019-03-13T02:57:39.878Z,5.49
2019-03-13T03:00:15.249Z,5.50
2019-03-13T03:02:50.870Z,5.51
2019-03-13T03:05:19.324Z,5.55
2019-03-13T03:07:47.783Z,5.58
2019-03-13T03:10:16.269Z,5.64
2019-03-13T03:12:44.818Z,5.70
2019-03-13T03:15:15.879Z,5.70
2019-03-13T03:17:44.420Z,5.73
2019-03-13T03:20:18.117Z,5.74
2019-03-13T03:22:46.556Z,5.76
2019-03-13T03:25:16.499Z,5.76
2019-03-13T03:27:45.000Z,5.78
2019-03-13T03:30:23.729Z,5.74
2019-03-13T03:32:52.464Z,5.74
2019-03-13T03:35:21.210Z,5.68
2019-03-13T03:37:49.618Z,5.63
2019-03-13T03:40:22.410Z,5.63
2019-03-13T03:42:49.564Z,5.59
2019-03-13T03:45:18.683Z,5.56
2019-03-13T03:47:47.232Z,5.56
2019-03-13T03:50:16.910Z,5.54
2019-03-13T03:52:45.636Z,5.57
2019-03-13T03:55:15.767Z,5.57
2019-03-13T03:57:44.257Z,5.56
2019-03-13T04:00:18.129Z,5.55
2019-03-13T04:02:46.606Z,5.52
2019-03-13T04:05:15.100Z,5.53
2019-03-13T04:07:43.558Z,5.51
2019-03-13T04:10:14.086Z,5.48
2019-03-13T04:12:42.643Z,5.51
2019-03-13T04:15:15.452Z,5.55
2019-03-13T04:17:44.134Z,5.54
2019-03-13T04:20:14.752Z,5.58
2019-03-13T04:22:43.403Z,5.62
2019-03-13T04:25:26.712Z,5.66
2019-03-13T04:27:55.482Z,5.67
2019-03-13T04:30:23.893Z,5.67
2019-03-13T04:32:52.275Z,5.71
2019-03-13T04:35:20.703Z,5.75
2019-03-13T04:37:49.106Z,5.76
2019-03-13T04:40:17.509Z,5.79
2019-03-13T04:42:45.921Z,5.80
2019-03-13T04:45:14.407Z,5.83
2019-03-13T04:47:42.878Z,5.81
2019-03-13T04:50:12.752Z,5.80
2019-03-13T04:52:41.243Z,5.85
2019-03-13T04:55:11.585Z,5.81
2019-03-13T04:57:40.004Z,5.82
2019-03-13T05:00:14.016Z,5.85
2019-03-13T05:02:42.417Z,5.85
2019-03-13T05:05:30.478Z,5.86
2019-03-13T05:07:58.912Z,5.89
2019-03-13T05:10:27.307Z,5.90
2019-03-13T05:12:55.916Z,5.94
2019-03-13T05:15:24.297Z,5.93
2019-03-13T05:17:52.685Z,5.93
2019-03-13T05:20:21.116Z,5.95
2019-03-13T05:22:49.515Z,5.96
2019-03-13T05:25:19.172Z,5.96
2019-03-13T05:27:47.915Z,5.94
2019-03-13T05:30:16.455Z,5.96
2019-03-13T05:32:44.867Z,5.94
2019-03-13T05:35:13.282Z,5.94
2019-03-13T05:37:41.770Z,5.98
2019-03-13T05:40:11.963Z,5.94
2019-03-13T05:42:40.453Z,5.94
2019-03-13T05:45:09.583Z,6.03
2019-03-13T05:47:38.016Z,6.03
2019-03-13T05:50:09.450Z,5.98
2019-03-13T05:52:37.853Z,5.97
2019-03-13T05:55:06.944Z,6.01
2019-03-13T05:57:35.364Z,6.03
2019-03-13T06:00:06.369Z,6.02
2019-03-13T06:02:34.765Z,6.00
2019-03-13T06:05:03.350Z,6.01
2019-03-13T06:07:31.787Z,6.03
2019-03-13T06:10:00.491Z,6.03
2019-03-13T06:12:28.965Z,6.10
2019-03-13T06:14:57.380Z,6.09
2019-03-13T06:17:25.802Z,6.10
2019-03-13T06:19:54.202Z,6.07
2019-03-13T06:22:22.597Z,6.07
2019-03-13T06:24:51.020Z,6.08
2019-03-13T06:27:19.479Z,6.07
2019-03-13T06:29:47.856Z,6.07
2019-03-13T06:32:16.409Z,6.07
2019-03-13T06:34:44.806Z,6.07
2019-03-13T06:37:13.217Z,6.04
2019-03-13T06:39:41.749Z,6.04
2019-03-13T06:42:10.174Z,6.01
2019-03-13T06:44:38.593Z,5.93
2019-03-13T06:47:07.034Z,5.91
2019-03-13T06:49:35.429Z,5.91
2019-03-13T06:52:03.921Z,5.91
2019-03-13T06:54:32.352Z,5.92
2019-03-13T06:57:00.767Z,5.93
2019-03-13T06:59:36.990Z,5.91
2019-03-13T07:02:09.797Z,5.92
2019-03-13T07:04:48.594Z,5.91
2019-03-13T07:07:21.301Z,5.90
2019-03-13T07:09:54.078Z,5.90
2019-03-13T07:12:26.776Z,5.88
2019-03-13T07:15:05.834Z,5.86
2019-03-13T07:17:35.977Z,5.85
2019-03-13T07:20:11.555Z,5.84
2019-03-13T07:22:47.378Z,5.82
2019-03-13T07:25:17.514Z,5.81
2019-03-13T07:27:56.616Z,5.78
2019-03-13T07:30:29.613Z,2.87
2019-03-13T07:33:02.402Z,5.79
2019-03-13T07:35:49.195Z,5.80
2019-03-13T07:38:24.991Z,5.80
2019-03-13T07:40:57.745Z,5.83
2019-03-13T07:43:42.818Z,5.86
2019-03-13T07:46:12.921Z,5.89
2019-03-13T07:48:42.932Z,5.95
2019-03-13T07:51:19.166Z,5.99
2019-03-13T07:53:55.238Z,6.00
2019-03-13T07:56:41.532Z,6.01
2019-03-13T07:59:23.608Z,6.03
2019-03-13T08:02:08.827Z,6.05
2019-03-13T08:04:47.918Z,6.04
2019-03-13T08:07:17.987Z,6.05
2019-03-13T08:10:04.278Z,6.08
2019-03-13T08:12:34.315Z,6.06
2019-03-13T08:15:04.445Z,6.02
2019-03-13T08:17:46.691Z,5.99
2019-03-13T08:20:32.950Z,5.96
2019-03-13T08:23:05.771Z,5.96
2019-03-13T08:25:47.897Z,5.97
2019-03-13T08:28:34.105Z,5.97
2019-03-13T08:31:04.309Z,5.93
2019-03-13T08:33:43.341Z,5.86
2019-03-13T08:36:25.578Z,5.84
2019-03-13T08:39:07.912Z,5.82
2019-03-13T08:41:53.478Z,5.85
2019-03-13T08:44:26.248Z,5.87
2019-03-13T08:47:12.918Z,5.91
2019-03-13T08:49:55.222Z,5.92
2019-03-13T08:52:28.289Z,5.95
2019-03-13T08:55:01.277Z,5.96
2019-03-13T08:57:40.049Z,5.95
2019-03-13T09:00:25.386Z,5.96
2019-03-13T09:02:55.450Z,5.98
2019-03-13T09:05:28.612Z,5.97
2019-03-13T09:08:07.407Z,6.00
2019-03-13T09:10:37.472Z,6.03
2019-03-13T09:13:13.468Z,6.04
2019-03-13T09:15:59.930Z,6.06
2019-03-13T09:18:30.011Z,6.09
2019-03-13T09:21:06.122Z,6.08
2019-03-13T09:23:39.435Z,6.08
2019-03-13T09:26:12.506Z,6.09
2019-03-13T09:28:54.895Z,6.09
2019-03-13T09:31:28.166Z,6.10
2019-03-13T09:34:04.441Z,6.10
2019-03-13T09:36:37.216Z,6.10
2019-03-13T09:39:10.917Z,6.12
2019-03-13T09:41:49.695Z,6.15
2019-03-13T09:44:35.012Z,6.17
2019-03-13T09:47:20.263Z,6.19
2019-03-13T09:49:50.311Z,6.16
2019-03-13T09:52:20.433Z,6.12
2019-03-13T09:54:56.454Z,6.08
2019-03-13T09:57:38.566Z,6.01
2019-03-13T10:00:14.011Z,5.91
2019-03-13T10:02:53.068Z,5.85
2019-03-13T10:05:29.140Z,5.82
2019-03-13T10:08:04.893Z,5.81
2019-03-13T10:10:44.126Z,5.82
2019-03-13T10:13:20.167Z,5.81
2019-03-13T10:15:50.271Z,5.76
2019-03-13T10:18:28.849Z,5.77
2019-03-13T10:20:58.935Z,5.79
2019-03-13T10:23:28.983Z,5.77
2019-03-13T10:26:04.876Z,5.80
2019-03-13T10:28:50.004Z,5.87
2019-03-13T10:31:20.323Z,5.90
2019-03-13T10:33:53.076Z,5.92
2019-03-13T10:36:23.257Z,5.91
2019-03-13T10:39:09.627Z,5.93
2019-03-13T10:41:49.002Z,5.94
2019-03-13T10:44:21.797Z,5.98
2019-03-13T10:46:51.852Z,5.98
2019-03-13T10:49:31.003Z,6.01
2019-03-13T10:52:16.133Z,6.04
2019-03-13T10:54:49.015Z,6.06
2019-03-13T10:57:19.056Z,6.10
2019-03-13T10:59:52.149Z,6.11
2019-03-13T11:02:34.170Z,6.11
2019-03-13T11:05:10.042Z,6.14
2019-03-13T11:07:46.085Z,6.21
2019-03-13T11:10:32.511Z,6.22
2019-03-13T11:13:02.545Z,6.24
2019-03-13T11:15:49.031Z,6.23
2019-03-13T11:18:19.077Z,6.24
2019-03-13T11:20:55.135Z,6.25
2019-03-13T11:23:27.698Z,6.26
2019-03-13T11:26:13.153Z,6.26
2019-03-13T11:28:45.963Z,6.28
2019-03-13T11:31:16.090Z,6.33
2019-03-13T11:33:55.363Z,6.36
2019-03-13T11:36:37.461Z,6.33
2019-03-13T11:39:08.749Z,6.33
2019-03-13T11:41:38.854Z,6.33
2019-03-13T11:44:11.681Z,6.35
2019-03-13T11:46:56.733Z,6.36
2019-03-13T11:49:26.868Z,6.40
2019-03-13T11:52:02.722Z,6.41
2019-03-13T11:54:49.128Z,6.41
2019-03-13T11:57:21.823Z,6.43
2019-03-13T11:59:54.434Z,6.45
2019-03-13T12:02:42.610Z,6.53
2019-03-13T12:05:29.886Z,6.58
2019-03-13T12:08:02.505Z,6.59
2019-03-13T12:10:32.632Z,6.62
2019-03-13T12:13:02.841Z,6.65
2019-03-13T12:15:36.056Z,6.68
2019-03-13T12:18:12.428Z,6.67
2019-03-13T12:20:45.031Z,6.69
2019-03-13T12:23:15.159Z,6.67
2019-03-13T12:25:47.642Z,6.68
2019-03-13T12:28:23.428Z,6.70
2019-03-13T12:31:09.818Z,6.68
2019-03-13T12:33:39.851Z,6.64
2019-03-13T12:36:12.922Z,6.53
2019-03-13T12:39:00.805Z,6.40
2019-03-13T12:41:42.891Z,6.32
2019-03-13T12:44:13.003Z,6.26
2019-03-13T12:46:46.359Z,6.20
2019-03-13T12:49:33.002Z,6.17
2019-03-13T12:52:05.777Z,6.11
2019-03-13T12:54:35.814Z,6.11
2019-03-13T12:57:18.050Z,6.11
2019-03-13T12:59:50.790Z,6.12
2019-03-13T13:02:35.919Z,4.10
2019-03-13T13:05:13.833Z,6.10
2019-03-13T13:08:00.031Z,6.14
2019-03-13T13:10:38.879Z,6.16
2019-03-13T13:13:26.474Z,6.16
2019-03-13T13:16:12.692Z,6.15
2019-03-13T13:18:51.723Z,6.11
2019-03-13T13:21:20.280Z,6.10
2019-03-13T13:23:48.755Z,6.11
2019-03-13T13:26:17.547Z,6.12
2019-03-13T13:28:45.971Z,6.17
2019-03-13T13:31:14.493Z,6.16
2019-03-13T13:33:42.915Z,6.17
2019-03-13T13:36:11.449Z,6.14
2019-03-13T13:38:39.871Z,6.18
2019-03-13T13:41:08.340Z,6.17
2019-03-13T13:43:36.750Z,6.18
2019-03-13T13:46:20.462Z,6.22
2019-03-13T13:48:48.864Z,6.31
2019-03-13T13:51:17.310Z,6.33
2019-03-13T13:53:45.693Z,6.38
2019-03-13T13:56:14.180Z,6.40
2019-03-13T13:58:42.576Z,6.43
2019-03-13T14:01:10.994Z,6.43
2019-03-13T14:03:39.391Z,6.44
2019-03-13T14:06:07.809Z,6.44
2019-03-13T14:08:36.219Z,6.43
2019-03-13T14:11:04.682Z,3.43
2019-03-13T14:13:33.087Z,6.44
2019-03-13T14:16:01.560Z,6.47
2019-03-13T14:18:29.974Z,6.56
2019-03-13T14:20:58.449Z,6.59
2019-03-13T14:23:26.878Z,6.58
2019-03-13T14:25:55.364Z,6.61
2019-03-13T14:28:23.755Z,6.68
2019-03-13T14:30:52.270Z,6.75
2019-03-13T14:33:20.701Z,6.84
2019-03-13T14:35:49.144Z,6.90
2019-03-13T14:38:17.606Z,6.94
2019-03-13T14:40:46.146Z,6.88
2019-03-13T14:43:14.635Z,6.82
2019-03-13T14:45:43.057Z,6.76
2019-03-13T14:48:11.469Z,6.71
2019-03-13T14:50:39.931Z,6.66
2019-03-13T14:53:08.494Z,6.64
2019-03-13T14:55:36.922Z,6.63
2019-03-13T14:58:05.358Z,6.56
2019-03-13T15:00:33.856Z,6.47
2019-03-13T15:03:02.318Z,6.42
2019-03-13T15:05:30.743Z,6.39
2019-03-13T15:07:59.221Z,6.37
2019-03-13T15:10:27.653Z,6.33
2019-03-13T15:12:56.136Z,6.31
2019-03-13T15:15:24.832Z,6.29
2019-03-13T15:17:53.721Z,6.27
2019-03-13T15:20:29.678Z,6.27
2019-03-13T15:22:58.067Z,6.29
2019-03-13T15:25:26.688Z,6.32
2019-03-13T15:27:55.213Z,6.34
2019-03-13T15:30:33.545Z,6.36
2019-03-13T15:33:01.997Z,6.34
2019-03-13T15:35:30.426Z,6.35
2019-03-13T15:37:58.811Z,6.34
2019-03-13T15:40:27.265Z,6.30
2019-03-13T15:42:55.648Z,6.29
2019-03-13T15:45:26.594Z,6.29
2019-03-13T15:47:55.169Z,6.28
2019-03-13T15:50:23.738Z,6.27
2019-03-13T15:52:52.146Z,6.26
2019-03-13T15:55:21.201Z,6.24
2019-03-13T15:57:49.747Z,6.20
2019-03-13T16:00:28.370Z,6.10
2019-03-13T16:02:56.871Z,6.05
2019-03-13T16:05:25.414Z,5.97
2019-03-13T16:07:53.921Z,5.92
2019-03-13T16:10:22.691Z,5.86
2019-03-13T16:12:52.384Z,5.83
2019-03-13T16:15:27.263Z,5.80
2019-03-13T16:17:55.724Z,5.77
2019-03-13T16:20:24.206Z,5.80
2019-03-13T16:23:02.386Z,5.76
2019-03-13T16:25:30.957Z,5.65
2019-03-13T16:27:59.688Z,5.52
2019-03-13T16:30:42.774Z,5.43
2019-03-13T16:33:11.170Z,5.37
2019-03-13T16:35:39.725Z,5.32
2019-03-13T16:38:08.221Z,5.24
2019-03-13T16:40:36.782Z,5.13
2019-03-13T16:43:05.676Z,5.10
2019-03-13T16:45:34.164Z,5.05
2019-03-13T16:48:02.727Z,5.03
2019-03-13T16:50:33.280Z,5.01
2019-03-13T16:53:01.839Z,4.99
2019-03-13T16:55:30.312Z,4.94
2019-03-13T16:57:58.897Z,4.96
2019-03-13T17:00:28.754Z,4.95
2019-03-13T17:02:57.291Z,4.89
2019-03-13T17:05:25.835Z,4.93
2019-03-13T17:07:54.388Z,4.95
2019-03-13T17:10:23.937Z,4.96
2019-03-13T17:12:52.539Z,4.98
2019-03-13T17:15:22.454Z,5.02
2019-03-13T17:17:51.231Z,4.99
2019-03-13T17:20:26.396Z,5.00
2019-03-13T17:22:55.161Z,5.03
2019-03-13T17:25:23.885Z,5.06
2019-03-13T17:27:52.243Z,5.04
2019-03-13T17:30:22.617Z,5.03
2019-03-13T17:32:51.181Z,5.06
2019-03-13T17:35:19.832Z,5.05
2019-03-13T17:37:48.385Z,5.05
2019-03-13T17:40:22.377Z,5.05
2019-03-13T17:42:51.074Z,5.04
2019-03-13T17:45:25.001Z,5.06
2019-03-13T17:47:54.284Z,5.06
2019-03-13T17:50:24.703Z,5.08
2019-03-13T17:52:53.687Z,5.09
2019-03-13T17:55:23.684Z,5.12
2019-03-13T17:57:52.077Z,5.14
2019-03-13T18:00:42.232Z,5.16
2019-03-13T18:03:10.691Z,5.17
2019-03-13T18:05:39.346Z,5.19
2019-03-13T18:08:07.750Z,5.19
2019-03-13T18:10:36.210Z,5.24
2019-03-13T18:13:04.677Z,5.27
2019-03-13T18:15:33.265Z,5.31
2019-03-13T18:18:01.745Z,5.36
2019-03-13T18:20:30.243Z,5.41
2019-03-13T18:22:58.792Z,5.45
2019-03-13T18:25:27.603Z,5.45
2019-03-13T18:27:56.140Z,5.52
2019-03-13T18:30:29.363Z,5.56
2019-03-13T18:32:57.886Z,5.57
2019-03-13T18:35:26.421Z,5.56
2019-03-13T18:37:54.923Z,5.53
2019-03-13T18:40:26.906Z,5.53
2019-03-13T18:42:55.420Z,5.54
2019-03-13T18:45:31.774Z,5.54
2019-03-13T18:48:00.415Z,5.52
2019-03-13T18:50:29.137Z,5.53
2019-03-13T18:52:57.680Z,5.55
2019-03-13T18:55:27.630Z,5.58
2019-03-13T18:57:56.191Z,5.68
2019-03-13T19:00:33.209Z,5.76
2019-03-13T19:03:01.693Z,5.78
2019-03-13T19:05:34.684Z,5.80
2019-03-13T19:08:03.239Z,5.78
2019-03-13T19:10:32.840Z,5.76
2019-03-13T19:13:01.416Z,5.75
2019-03-13T19:15:30.370Z,5.81
2019-03-13T19:18:00.733Z,5.81
2019-03-13T19:20:31.105Z,5.78
2019-03-13T19:22:59.581Z,5.78
2019-03-13T19:25:28.126Z,5.70
2019-03-13T19:27:56.695Z,5.66
2019-03-13T19:30:37.728Z,5.61
2019-03-13T19:33:09.514Z,5.59
2019-03-13T19:35:37.909Z,5.56
2019-03-13T19:38:11.190Z,5.50
2019-03-13T19:40:39.898Z,5.47
2019-03-13T19:43:08.441Z,5.46
2019-03-13T19:45:44.728Z,5.45
2019-03-13T19:48:13.234Z,5.51
2019-03-13T19:50:41.730Z,5.50
2019-03-13T19:53:10.272Z,5.49
2019-03-13T19:55:38.819Z,5.49
2019-03-13T19:58:07.638Z,5.52
2019-03-13T20:00:36.190Z,5.53
2019-03-13T20:03:07.668Z,5.54
2019-03-13T20:05:45.327Z,5.53
2019-03-13T20:08:06.528Z,5.52
2019-03-13T20:10:35.055Z,5.57
2019-03-13T20:13:03.673Z,5.60
2019-03-13T20:15:34.604Z,5.61
2019-03-13T20:18:03.090Z,5.57
2019-03-13T20:20:31.613Z,5.51
2019-03-13T20:23:05.082Z,5.52
2019-03-13T20:25:33.667Z,5.48
2019-03-13T20:28:02.181Z,5.46
2019-03-13T20:30:30.762Z,5.40
2019-03-13T20:32:59.237Z,4.49
2019-03-13T20:35:27.743Z,5.37
2019-03-13T20:37:56.301Z,5.37
2019-03-13T20:40:28.310Z,5.33
2019-03-13T20:42:56.819Z,5.28
2019-03-13T20:45:29.256Z,5.25
2019-03-13T20:47:57.790Z,5.27
2019-03-13T20:50:36.650Z,5.27
2019-03-13T20:52:56.564Z,5.26
2019-03-13T20:55:25.228Z,5.23
2019-03-13T20:57:53.741Z,5.20
2019-03-13T21:00:26.199Z,5.19
2019-03-13T21:02:56.796Z,5.19
2019-03-13T21:05:25.582Z,5.19
2019-03-13T21:07:54.565Z,5.16
2019-03-13T21:10:23.102Z,5.14
2019-03-13T21:12:51.667Z,5.13
2019-03-13T21:15:24.584Z,5.13
2019-03-13T21:17:53.045Z,5.14
2019-03-13T21:20:21.697Z,5.18
2019-03-13T21:22:50.191Z,5.19
2019-03-13T21:25:25.688Z,5.17
2019-03-13T21:27:54.250Z,5.15
2019-03-13T21:30:29.264Z,5.18
2019-03-13T21:32:58.369Z,5.19
2019-03-13T21:35:26.904Z,5.23
2019-03-13T21:37:55.300Z,5.27
2019-03-13T21:40:26.058Z,5.23
2019-03-13T21:42:55.283Z,5.21
2019-03-13T21:45:24.449Z,5.25
2019-03-13T21:47:53.034Z,5.23
2019-03-13T21:50:21.603Z,5.23
2019-03-13T21:52:50.017Z,5.23
2019-03-13T21:55:19.109Z,5.25
2019-03-13T21:57:47.733Z,5.28
2019-03-13T22:00:21.734Z,5.29
2019-03-13T22:02:50.478Z,5.30
2019-03-13T22:05:25.692Z,5.29
2019-03-13T22:07:49.337Z,5.30
2019-03-13T22:10:19.302Z,5.28
2019-03-13T22:12:47.866Z,5.23
2019-03-13T22:15:20.697Z,5.20
2019-03-13T22:17:49.241Z,5.16
2019-03-13T22:20:18.917Z,5.12
2019-03-13T22:22:47.393Z,5.13
2019-03-13T22:25:17.307Z,5.13
2019-03-13T22:27:45.837Z,5.18
2019-03-13T22:30:24.396Z,5.19
2019-03-13T22:32:53.223Z,5.17
2019-03-13T22:35:21.714Z,5.16
2019-03-13T22:37:50.117Z,3.37
2019-03-13T22:40:19.503Z,5.23
2019-03-13T22:42:47.912Z,5.24
2019-03-13T22:45:20.633Z,5.22
2019-03-13T22:47:49.146Z,5.23
2019-03-13T22:50:22.673Z,5.24
2019-03-13T22:52:51.154Z,5.23
2019-03-13T22:55:19.843Z,5.25
2019-03-13T22:57:48.340Z,5.26
2019-03-13T23:00:53.040Z,5.25
2019-03-13T23:03:23.216Z,5.31
2019-03-13T23:05:51.765Z,5.32
2019-03-13T23:08:20.282Z,5.28
2019-03-13T23:10:48.966Z,5.28
2019-03-13T23:13:17.796Z,5.31
2019-03-13T23:15:46.677Z,5.32
2019-03-13T23:18:18.062Z,5.36
2019-03-13T23:20:45.429Z,5.37
2019-03-13T23:23:13.866Z,5.42
2019-03-13T23:25:42.252Z,5.49
2019-03-13T23:28:10.668Z,5.49
2019-03-13T23:30:39.079Z,5.45
2019-03-13T23:33:07.608Z,5.46
2019-03-13T23:35:36.106Z,5.46
2019-03-13T23:38:05.152Z,5.48
2019-03-13T23:40:33.700Z,5.38
2019-03-13T23:43:02.068Z,5.33
2019-03-13T23:45:30.506Z,5.29
2019-03-13T23:47:59.060Z,5.26
2019-03-13T23:50:27.470Z,5.24
2019-03-13T23:52:55.859Z,5.23
2019-03-13T23:55:24.347Z,5.24
2019-03-13T23:57:52.827Z,5.24
